Time;durP1;ratioP1;P1;durP2;ratioP2;P2;SDS_P1;SDS_P2;PMS_P1;PMS_P2;Temp;Humidity;BMP_temperature;BMP_pressure;BME280_temperature;BME280_humidity;BME280_pressure;Samples;Min_cycle;Max_cycle;Signal;HPM_P1;HPM_P2
2022/02/27 00:00:01;;;;;;;6.68;1.02;;;;;;;19.69;41.50;101466.88;4996010;28;20079;-40
2022/02/27 00:02:26;;;;;;;5.97;1.20;;;;;;;19.68;41.65;101473.16;5001753;28;20426;-39
2022/02/27 00:04:51;;;;;;;4.57;1.08;;;;;;;19.67;41.39;101470.69;5003897;28;20532;-40
2022/02/27 00:07:17;;;;;;;4.22;0.90;;;;;;;19.67;41.49;101462.78;5006008;28;20030;-40
2022/02/27 00:09:43;;;;;;;3.88;0.70;;;;;;;19.66;41.50;101461.13;4992937;28;20610;-40
2022/02/27 00:12:08;;;;;;;4.30;0.70;;;;;;;19.66;41.37;101458.47;4987916;28;20046;-40
2022/02/27 00:14:34;;;;;;;8.50;0.90;;;;;;;19.66;41.32;101458.47;4999654;28;20537;-40
2022/02/27 00:16:59;;;;;;;3.95;0.77;;;;;;;19.65;41.43;101456.84;5005399;28;20588;-39
2022/02/27 00:19:25;;;;;;;4.53;0.77;;;;;;;19.63;41.35;101451.72;5007645;28;20034;-40
2022/02/27 00:21:50;;;;;;;2.95;0.50;;;;;;;19.64;41.39;101452.56;5007881;28;20053;-40
2022/02/27 00:24:16;;;;;;;3.55;0.70;;;;;;;19.62;41.67;101454.56;5009862;28;20034;-39
2022/02/27 00:26:43;;;;;;;2.17;0.60;;;;;;;19.62;41.52;101462.47;4991970;28;20565;-40
2022/02/27 00:29:09;;;;;;;3.28;0.93;;;;;;;19.62;41.55;101457.19;5002770;28;20034;-39
2022/02/27 00:31:35;;;;;;;4.75;0.90;;;;;;;19.61;41.56;101447.63;5007651;28;20069;-40
2022/02/27 00:34:00;;;;;;;2.38;0.68;;;;;;;19.59;41.60;101441.69;5006143;28;20493;-40
2022/02/27 00:36:26;;;;;;;2.42;0.73;;;;;;;19.57;41.60;101459.56;4999067;28;20037;-40
2022/02/27 00:38:51;;;;;;;2.90;0.55;;;;;;;19.55;41.60;101447.34;5001286;28;20062;-40
2022/02/27 00:41:17;;;;;;;3.17;0.75;;;;;;;19.54;41.38;101434.31;5010603;28;20030;-40
2022/02/27 00:43:42;;;;;;;3.70;0.52;;;;;;;19.52;41.25;101431.00;4995222;28;20148;-40
2022/02/27 00:46:09;;;;;;;3.83;0.80;;;;;;;19.51;41.26;101416.97;5008603;28;20394;-40
2022/02/27 00:48:35;;;;;;;2.13;0.90;;;;;;;19.50;41.18;101423.22;4998899;28;20128;-40
2022/02/27 00:51:01;;;;;;;5.85;0.63;;;;;;;19.49;41.39;101424.22;5002178;28;20072;-40
2022/02/27 00:53:27;;;;;;;5.03;0.77;;;;;;;19.47;41.21;101434.16;5004170;28;20072;-40
2022/02/27 00:55:52;;;;;;;3.28;0.45;;;;;;;19.48;41.36;101432.34;4992466;28;20125;-40
2022/02/27 00:58:18;;;;;;;2.92;0.68;;;;;;;19.46;41.38;101418.47;5001011;28;20429;-40
2022/02/27 01:00:43;;;;;;;3.65;0.80;;;;;;;19.45;41.39;101422.94;5000427;28;20158;-40
2022/02/27 01:03:09;;;;;;;9.55;1.70;;;;;;;19.44;41.51;101415.19;5002317;28;20022;-40
2022/02/27 01:05:35;;;;;;;2.55;0.73;;;;;;;19.43;41.36;101430.22;5007443;28;20068;-40
2022/02/27 01:08:00;;;;;;;2.13;0.60;;;;;;;19.43;41.30;101424.94;5010124;28;20441;-40
2022/02/27 01:10:26;;;;;;;3.70;0.88;;;;;;;19.41;41.47;101421.66;5006906;28;20450;-40
2022/02/27 01:12:51;;;;;;;3.53;0.85;;;;;;;19.40;41.53;101414.72;4998622;28;20461;-40
2022/02/27 01:15:17;;;;;;;4.50;1.05;;;;;;;19.40;41.35;101435.06;4996976;28;20040;-41
2022/02/27 01:17:43;;;;;;;4.88;0.80;;;;;;;19.39;41.41;101428.94;5003898;28;20030;-40
2022/02/27 01:20:10;;;;;;;3.20;0.60;;;;;;;19.39;41.41;101430.75;5008723;28;20049;-40
2022/02/27 01:22:35;;;;;;;1.90;0.47;;;;;;;19.39;41.48;101438.69;5004050;28;20100;-40
2022/02/27 01:25:06;;;;;;;1.98;0.43;;;;;;;19.37;41.32;101424.88;5008242;28;20393;-40
2022/02/27 01:27:31;;;;;;;3.67;0.90;;;;;;;19.35;41.45;101419.75;5004961;28;20525;-40
2022/02/27 01:29:57;;;;;;;4.10;0.73;;;;;;;19.35;41.35;101425.03;5005230;28;20030;-40
2022/02/27 01:32:23;;;;;;;3.05;0.60;;;;;;;19.34;41.53;101420.75;4991056;28;20034;-40
2022/02/27 01:34:49;;;;;;;1.98;0.50;;;;;;;19.34;41.37;101426.03;4998826;28;20033;-40
2022/02/27 01:37:16;;;;;;;5.15;0.50;;;;;;;19.33;41.22;101421.75;5001183;28;20112;-39
2022/02/27 01:39:41;;;;;;;2.83;0.40;;;;;;;19.32;41.23;101425.41;4991385;28;20038;-40
2022/02/27 01:42:11;;;;;;;2.10;0.30;;;;;;;19.31;41.32;101423.75;4997611;28;20389;-40
2022/02/27 01:44:39;;;;;;;2.28;0.38;;;;;;;19.31;41.23;101425.56;5007482;28;20042;-40
2022/02/27 01:47:11;;;;;;;1.70;0.40;;;;;;;19.30;41.23;101424.75;5005487;28;20429;-40
2022/02/27 01:49:39;;;;;;;2.17;0.40;;;;;;;19.29;41.32;101414.38;4996751;28;20033;-40
2022/02/27 01:52:06;;;;;;;3.13;0.68;;;;;;;19.28;41.14;101420.66;5005061;28;20034;-40
2022/02/27 01:54:32;;;;;;;1.95;0.40;;;;;;;19.27;41.02;101409.25;4995089;28;20034;-40
2022/02/27 01:56:59;;;;;;;2.92;0.45;;;;;;;19.27;40.95;101427.75;4995789;28;20027;-40
2022/02/27 01:59:25;;;;;;;2.47;0.40;;;;;;;19.26;40.92;101412.91;5006728;28;20061;-40
2022/02/27 02:01:51;;;;;;;2.10;0.50;;;;;;;19.26;40.93;101414.72;5003542;28;20030;-40
2022/02/27 02:04:18;;;;;;;2.05;0.60;;;;;;;19.25;40.77;101421.81;5004592;28;20040;-40
2022/02/27 02:06:44;;;;;;;3.17;0.40;;;;;;;19.25;40.94;101426.28;4994969;28;20854;-40
2022/02/27 02:09:10;;;;;;;2.58;0.40;;;;;;;19.23;40.70;101440.50;5008948;28;20038;-40
2022/02/27 02:11:36;;;;;;;2.20;0.50;;;;;;;19.23;40.50;101427.28;5295544;22;21120;-40
2022/02/27 02:14:04;;;;;;;2.30;0.45;;;;;;;19.22;40.40;101436.22;4988584;28;20030;-39
2022/02/27 02:16:45;;;;;;;2.75;0.40;;;;;;;19.19;40.27;101427.81;4987517;28;20030;-39
2022/02/27 02:19:15;;;;;;;1.98;0.50;;;;;;;19.19;40.50;101418.06;4987595;28;20038;-40
2022/02/27 02:21:46;;;;;;;1.15;0.40;;;;;;;19.19;40.49;101418.06;4988430;28;20027;-40
2022/02/27 02:24:13;;;;;;;2.97;0.30;;;;;;;19.19;40.75;101426.00;4969512;28;20085;-40
2022/02/27 02:26:40;;;;;;;2.08;0.40;;;;;;;19.18;40.74;101420.88;4968973;28;20575;-40
2022/02/27 02:29:08;;;;;;;2.45;0.40;;;;;;;19.18;40.71;101410.31;4989103;28;20031;-40
2022/02/27 02:31:35;;;;;;;1.50;0.30;;;;;;;19.18;40.91;101415.59;5002233;28;20049;-40
2022/02/27 02:34:08;;;;;;;2.22;0.40;;;;;;;19.15;40.79;101405.38;4987896;28;20034;-39
2022/02/27 02:36:34;;;;;;;3.72;0.88;;;;;;;19.16;40.75;101417.59;4987937;28;20220;-40
2022/02/27 02:39:00;;;;;;;3.10;0.40;;;;;;;19.15;40.83;101406.22;4988944;28;20569;-40
2022/02/27 02:41:26;;;;;;;1.95;0.30;;;;;;;19.15;40.82;101403.56;4987939;28;20670;-39
2022/02/27 02:43:51;;;;;;;1.35;0.30;;;;;;;19.15;40.67;101413.31;4988513;28;20030;-39
2022/02/27 02:46:17;;;;;;;1.60;0.40;;;;;;;19.13;40.78;101424.06;4986702;28;20423;-39
2022/02/27 02:48:42;;;;;;;1.95;0.40;;;;;;;19.14;40.60;101403.75;4986896;28;20429;-39
2022/02/27 02:51:08;;;;;;;2.95;0.40;;;;;;;19.12;40.50;101419.78;4987487;28;20081;-40
2022/02/27 02:53:39;;;;;;;1.98;0.40;;;;;;;19.10;40.57;101410.38;4987840;28;20178;-39
2022/02/27 02:56:05;;;;;;;1.58;0.40;;;;;;;19.11;40.64;101422.59;4987046;28;20046;-40
2022/02/27 02:58:35;;;;;;;1.38;0.35;;;;;;;19.08;40.45;101415.84;4987470;28;20038;-39
2022/02/27 03:01:02;;;;;;;2.40;0.43;;;;;;;19.09;40.37;101421.94;4987725;28;20022;-40
2022/02/27 03:03:28;;;;;;;2.85;0.50;;;;;;;19.08;40.26;101404.47;4987242;28;20494;-40
2022/02/27 03:05:53;;;;;;;3.17;0.50;;;;;;;19.07;40.43;101408.09;4988023;28;20034;-40
2022/02/27 03:08:19;;;;;;;0.90;0.30;;;;;;;19.06;40.37;101417.00;4987417;28;20446;-40
2022/02/27 03:10:44;;;;;;;1.17;0.20;;;;;;;19.04;40.44;101403.16;4988008;28;20528;-39
2022/02/27 03:13:10;;;;;;;2.13;0.50;;;;;;;19.04;40.23;101408.44;4986590;28;20042;-40
2022/02/27 03:15:35;;;;;;;1.60;0.43;;;;;;;19.03;40.33;101398.88;4988260;28;20026;-40
2022/02/27 03:18:01;;;;;;;1.52;0.30;;;;;;;19.02;40.48;101405.16;4985535;28;20026;-40
2022/02/27 03:20:26;;;;;;;2.33;0.38;;;;;;;19.01;40.46;101403.50;4987475;28;20034;-40
2022/02/27 03:22:52;;;;;;;1.85;0.30;;;;;;;19.00;40.33;101402.69;4986248;28;20026;-40
2022/02/27 03:25:17;;;;;;;1.20;0.20;;;;;;;19.00;40.56;101397.41;4987458;28;20030;-40
2022/02/27 03:27:42;;;;;;;2.22;0.20;;;;;;;18.98;40.34;101399.41;4985471;28;20235;-40
2022/02/27 03:30:08;;;;;;;0.90;0.20;;;;;;;18.98;40.48;101394.13;4987698;28;20030;-40
2022/02/27 03:32:34;;;;;;;1.60;0.20;;;;;;;18.96;40.12;101390.84;4986769;28;20062;-41
2022/02/27 03:34:59;;;;;;;1.27;0.35;;;;;;;18.94;39.92;101392.84;4986756;28;20030;-40
2022/02/27 03:37:25;;;;;;;1.00;0.20;;;;;;;18.94;39.53;101397.28;4986256;28;20042;-40
2022/02/27 03:39:51;;;;;;;1.23;0.20;;;;;;;18.93;39.80;101382.44;4987527;28;20033;-40
2022/02/27 03:42:17;;;;;;;0.88;0.20;;;;;;;18.93;39.76;101388.56;4998156;28;20019;-40
2022/02/27 03:44:43;;;;;;;1.40;0.32;;;;;;;18.92;39.45;101388.72;4968257;28;20042;-39
2022/02/27 03:47:08;;;;;;;2.20;0.20;;;;;;;18.93;39.00;101398.28;4991455;28;20057;-40
2022/02/27 03:49:34;;;;;;;0.82;0.20;;;;;;;18.92;39.07;101394.00;4986064;28;20505;-40
2022/02/27 03:51:59;;;;;;;0.70;0.20;;;;;;;18.91;39.06;101390.53;4986188;28;20030;-40
2022/02/27 03:54:25;;;;;;;0.88;0.20;;;;;;;18.92;39.05;101380.81;4986839;28;20082;-40
2022/02/27 03:56:50;;;;;;;1.95;0.30;;;;;;;18.90;38.88;101395.00;4986937;28;20042;-40
2022/02/27 03:59:16;;;;;;;1.70;0.20;;;;;;;18.92;39.21;101394.00;4987473;28;20056;-40
2022/02/27 04:01:42;;;;;;;1.52;0.20;;;;;;;18.90;39.58;101388.94;4986398;28;20473;-40
2022/02/27 04:04:07;;;;;;;1.25;0.30;;;;;;;18.89;39.67;101400.50;4986436;28;20222;-40
2022/02/27 04:06:33;;;;;;;1.05;0.22;;;;;;;18.88;39.86;101394.38;4985977;28;20022;-40
2022/02/27 04:08:58;;;;;;;1.45;0.30;;;;;;;18.88;40.09;101407.59;4986552;28;20058;-39
2022/02/27 04:11:24;;;;;;;2.22;0.28;;;;;;;18.89;40.14;101397.84;4986401;28;20027;-40
2022/02/27 04:13:49;;;;;;;2.60;0.20;;;;;;;18.88;40.10;101393.56;4987371;28;20246;-40
2022/02/27 04:16:15;;;;;;;0.98;0.20;;;;;;;18.88;40.10;101383.00;4986447;28;20029;-40
2022/02/27 04:18:40;;;;;;;1.23;0.20;;;;;;;18.87;40.00;101382.19;4984924;28;20022;-39
2022/02/27 04:21:06;;;;;;;1.45;0.20;;;;;;;18.87;40.04;101397.22;4986435;28;20370;-40
2022/02/27 04:23:32;;;;;;;1.05;0.20;;;;;;;18.86;39.96;101385.81;4986279;28;20026;-39
2022/02/27 04:25:57;;;;;;;1.00;0.20;;;;;;;18.86;40.13;101390.28;4986389;28;20034;-41
2022/02/27 04:28:23;;;;;;;0.40;0.13;;;;;;;18.85;40.03;101397.38;4987145;28;20034;-40
2022/02/27 04:30:48;;;;;;;2.85;0.20;;;;;;;18.85;40.20;101393.91;4987279;28;20177;-39
2022/02/27 04:33:14;;;;;;;0.95;0.20;;;;;;;18.83;40.07;101380.88;4999802;28;20370;-40
2022/02/27 04:35:39;;;;;;;2.05;0.20;;;;;;;18.84;40.25;101392.28;4987088;28;20061;-40
2022/02/27 04:38:05;;;;;;;1.73;0.20;;;;;;;18.83;40.25;101390.63;4986519;28;20513;-40
2022/02/27 04:40:33;;;;;;;1.15;0.20;;;;;;;18.82;40.38;101386.34;4985148;28;20089;-41
2022/02/27 04:43:01;;;;;;;0.75;0.20;;;;;;;18.80;40.41;101397.09;5001766;28;20022;-40
2022/02/27 04:45:27;;;;;;;0.68;0.20;;;;;;;18.79;40.46;101395.44;4985970;28;20494;-42
2022/02/27 04:47:53;;;;;;;0.88;0.30;;;;;;;18.79;40.60;101387.53;4984977;28;20031;-40
2022/02/27 04:50:18;;;;;;;1.08;0.20;;;;;;;18.78;40.60;101391.16;4986016;28;20034;-40
2022/02/27 04:52:44;;;;;;;1.33;0.20;;;;;;;18.78;40.63;101404.34;4984963;28;20041;-40
2022/02/27 04:55:09;;;;;;;1.15;0.20;;;;;;;18.77;40.75;101396.59;4984729;28;20144;-40
2022/02/27 04:57:35;;;;;;;1.40;0.10;;;;;;;18.76;40.56;101401.06;4985609;28;20048;-40
2022/02/27 05:00:02;;;;;;;1.80;0.20;;;;;;;18.76;40.47;101393.16;4984325;28;20504;-40
2022/02/27 05:02:28;;;;;;;0.68;0.20;;;;;;;18.76;40.62;101406.34;4985097;28;20058;-40
2022/02/27 05:04:53;;;;;;;0.57;0.20;;;;;;;18.75;40.54;101407.34;4988629;28;20449;-40
2022/02/27 05:07:19;;;;;;;2.17;0.40;;;;;;;18.74;40.17;101408.34;4988308;28;20088;-40
2022/02/27 05:09:44;;;;;;;1.10;0.20;;;;;;;18.75;40.06;101411.81;4988092;28;20057;-40
2022/02/27 05:12:10;;;;;;;0.90;0.20;;;;;;;18.72;39.31;101399.78;4989358;28;20042;-39
2022/02/27 05:14:35;;;;;;;1.02;0.28;;;;;;;18.73;39.34;101427.00;4988033;28;20042;-39
2022/02/27 05:17:01;;;;;;;1.17;0.20;;;;;;;18.72;38.95;101404.22;4988312;28;20538;-39
2022/02/27 05:19:26;;;;;;;0.60;0.20;;;;;;;18.69;38.93;101421.25;4988520;28;20114;-40
2022/02/27 05:21:52;;;;;;;2.10;0.20;;;;;;;18.69;38.77;101431.78;4987955;28;20038;-40
2022/02/27 05:24:17;;;;;;;1.17;0.30;;;;;;;18.68;38.99;101408.22;4987564;28;20113;-40
2022/02/27 05:26:43;;;;;;;0.82;0.20;;;;;;;18.67;39.43;101412.66;4988608;28;20034;-40
2022/02/27 05:29:09;;;;;;;0.88;0.20;;;;;;;18.67;39.69;101417.94;4988866;28;20095;-41
2022/02/27 05:31:34;;;;;;;0.88;0.20;;;;;;;18.66;39.63;101426.03;4989209;28;20038;-40
2022/02/27 05:34:00;;;;;;;1.35;0.10;;;;;;;18.64;39.66;101418.28;4986816;28;20375;-41
2022/02/27 05:36:25;;;;;;;0.65;0.20;;;;;;;18.64;39.83;101436.78;4988419;28;20054;-40
2022/02/27 05:38:51;;;;;;;0.65;0.20;;;;;;;18.63;40.07;101429.84;4987864;28;20476;-40
2022/02/27 05:41:16;;;;;;;0.80;0.20;;;;;;;18.63;40.01;101431.66;4988101;28;20038;-39
2022/02/27 05:43:42;;;;;;;0.75;0.13;;;;;;;18.61;40.09;101434.47;4987420;28;20038;-41
2022/02/27 05:46:08;;;;;;;2.35;0.20;;;;;;;18.62;40.19;101446.69;4988424;28;20100;-40
2022/02/27 05:48:33;;;;;;;0.70;0.30;;;;;;;18.59;40.42;101460.19;4985358;28;20536;-40
2022/02/27 05:50:59;;;;;;;0.50;0.20;;;;;;;18.58;40.48;101413.69;4988090;28;20034;-40
2022/02/27 05:53:24;;;;;;;1.20;0.22;;;;;;;18.57;40.42;101448.97;4986413;28;20528;-39
2022/02/27 05:55:56;;;;;;;1.17;0.20;;;;;;;18.56;40.29;101440.25;4988031;28;20252;-39
2022/02/27 05:58:23;;;;;;;0.85;0.20;;;;;;;18.56;40.34;101463.16;4982091;28;20045;-40
2022/02/27 06:00:49;;;;;;;3.70;0.17;;;;;;;18.56;40.42;101442.88;4984992;28;20260;-40
2022/02/27 06:03:16;;;;;;;1.70;0.20;;;;;;;18.56;40.42;101449.97;4987774;28;20054;-40
2022/02/27 06:05:42;;;;;;;1.75;0.20;;;;;;;18.56;40.35;101468.44;4988422;28;20030;-40
2022/02/27 06:08:08;;;;;;;0.57;0.20;;;;;;;18.56;40.11;101447.34;4985525;28;20034;-40
2022/02/27 06:10:33;;;;;;;1.92;0.20;;;;;;;18.54;40.29;101468.63;4988280;28;20054;-39
2022/02/27 06:12:59;;;;;;;1.63;0.20;;;;;;;18.55;40.32;101483.47;4988143;28;20239;-41
2022/02/27 06:15:24;;;;;;;0.90;0.20;;;;;;;18.56;40.25;101474.56;4986931;28;20050;-39
2022/02/27 06:17:50;;;;;;;1.50;0.35;;;;;;;18.55;40.16;101472.91;4986815;28;20398;-39
2022/02/27 06:20:15;;;;;;;0.82;0.20;;;;;;;18.55;39.99;101475.53;4986729;28;20026;-40
2022/02/27 06:22:45;;;;;;;1.38;0.20;;;;;;;18.54;40.04;101460.69;4988477;28;20113;-40
2022/02/27 06:25:12;;;;;;;0.50;0.10;;;;;;;18.56;39.91;101471.09;4987104;28;20038;-40
2022/02/27 06:27:42;;;;;;;0.93;0.15;;;;;;;18.56;39.97;101466.63;4988226;28;20108;-39
2022/02/27 06:30:10;;;;;;;0.63;0.10;;;;;;;18.55;39.89;101461.53;4987215;28;20042;-41
2022/02/27 06:32:37;;;;;;;1.20;0.20;;;;;;;18.55;39.85;101490.56;4987374;28;20026;-40
2022/02/27 06:35:03;;;;;;;0.82;0.20;;;;;;;18.54;39.53;101451.97;4986486;28;20031;-40
2022/02/27 06:37:29;;;;;;;1.85;0.22;;;;;;;18.54;39.35;101494.19;4986660;28;20034;-40
2022/02/27 06:39:54;;;;;;;1.38;0.32;;;;;;;18.53;39.20;101466.97;4987300;28;20096;-42
2022/02/27 06:42:20;;;;;;;0.50;0.20;;;;;;;18.53;39.14;101482.81;4983465;28;20485;-40
2022/02/27 06:44:45;;;;;;;2.58;0.20;;;;;;;18.52;39.06;101477.69;4985044;28;20053;-40
2022/02/27 06:47:11;;;;;;;1.15;0.30;;;;;;;18.51;39.01;101502.44;4988832;28;20034;-39
2022/02/27 06:49:36;;;;;;;1.42;0.20;;;;;;;18.49;39.53;101478.88;4983849;28;20038;-39
2022/02/27 06:52:02;;;;;;;2.33;0.17;;;;;;;18.48;39.70;101485.13;4983467;28;20041;-41
2022/02/27 06:54:27;;;;;;;1.58;0.20;;;;;;;18.47;39.55;101501.97;4978681;28;20089;-40
2022/02/27 06:56:53;;;;;;;0.73;0.20;;;;;;;18.46;39.35;101516.16;4987320;28;20406;-40
2022/02/27 06:59:18;;;;;;;1.75;0.20;;;;;;;18.45;39.32;101493.41;4986828;28;20029;-40
2022/02/27 07:01:44;;;;;;;1.02;0.40;;;;;;;18.45;39.28;101482.00;4987072;28;20112;-39
2022/02/27 07:04:09;;;;;;;0.70;0.20;;;;;;;18.43;39.36;101503.28;4986078;28;20800;-41
2022/02/27 07:06:35;;;;;;;0.93;0.20;;;;;;;18.43;39.50;101523.59;4986492;28;20124;-40
2022/02/27 07:09:00;;;;;;;1.33;0.20;;;;;;;18.42;39.50;101508.78;4986649;28;20060;-40
2022/02/27 07:11:26;;;;;;;0.63;0.10;;;;;;;18.43;39.52;101515.69;4985804;28;20030;-41
2022/02/27 07:13:51;;;;;;;0.52;0.20;;;;;;;18.43;39.40;101505.16;4986780;28;20294;-40
2022/02/27 07:16:22;;;;;;;0.60;0.20;;;;;;;18.44;39.50;101519.94;4978687;28;20023;-40
2022/02/27 07:18:49;;;;;;;2.50;0.45;;;;;;;18.47;39.61;101527.53;5001341;28;20042;-40
2022/02/27 07:21:15;;;;;;;1.42;0.20;;;;;;;18.51;39.77;101534.13;4985435;28;20059;-40
2022/02/27 07:23:41;;;;;;;0.68;0.10;;;;;;;18.52;39.63;101510.19;4985778;28;20029;-40
2022/02/27 07:26:06;;;;;;;2.65;0.20;;;;;;;18.57;39.40;101514.97;4981071;28;20028;-40
2022/02/27 07:28:32;;;;;;;0.57;0.20;;;;;;;18.60;39.22;101533.13;4983536;28;20028;-41
2022/02/27 07:30:57;;;;;;;0.57;0.15;;;;;;;18.65;39.27;101519.41;4986011;28;20038;-40
2022/02/27 07:33:23;;;;;;;0.40;0.20;;;;;;;18.68;39.09;101517.25;4984826;28;20033;-40
2022/02/27 07:35:49;;;;;;;1.55;0.20;;;;;;;18.74;39.07;101523.66;4980772;28;20173;-40
2022/02/27 07:38:14;;;;;;;0.50;0.10;;;;;;;18.77;39.07;101513.59;4986871;28;20042;-40
2022/02/27 07:40:40;;;;;;;0.55;0.10;;;;;;;18.81;39.27;101524.63;4984838;28;20422;-40
2022/02/27 07:43:05;;;;;;;0.65;0.20;;;;;;;18.83;39.13;101520.81;4979189;28;20036;-39
2022/02/27 07:45:31;;;;;;;0.52;0.10;;;;;;;18.87;38.89;101506.28;4986242;28;20046;-39
2022/02/27 07:47:57;;;;;;;0.73;0.20;;;;;;;18.92;39.12;101536.59;4985623;28;20405;-40
2022/02/27 07:50:23;;;;;;;2.28;0.20;;;;;;;18.95;38.89;101497.47;4982178;28;20024;-39
2022/02/27 07:52:49;;;;;;;0.70;0.20;;;;;;;18.99;39.01;101511.97;4984495;28;20553;-39
2022/02/27 07:55:14;;;;;;;0.50;0.17;;;;;;;19.05;38.89;101513.09;4982984;28;20475;-40
2022/02/27 07:57:40;;;;;;;1.27;0.20;;;;;;;19.09;38.77;101501.19;4981064;28;20114;-40
2022/02/27 08:00:06;;;;;;;0.52;0.20;;;;;;;19.14;38.64;101509.41;4985923;28;20117;-39
2022/02/27 08:02:32;;;;;;;0.75;0.20;;;;;;;19.20;38.54;101514.81;4984657;28;20038;-39
2022/02/27 08:04:57;;;;;;;2.05;0.30;;;;;;;19.23;38.43;101526.84;4984776;28;20038;-40
2022/02/27 08:07:23;;;;;;;1.38;0.20;;;;;;;19.29;38.43;101520.06;4984021;28;20035;-40
2022/02/27 08:09:49;;;;;;;0.98;0.20;;;;;;;19.32;38.28;101504.66;4985587;28;20030;-40
2022/02/27 08:12:14;;;;;;;1.98;0.28;;;;;;;19.38;38.53;101517.16;4972712;28;20043;-39
2022/02/27 08:14:40;;;;;;;4.97;0.20;;;;;;;19.46;38.90;101503.06;4975456;28;20031;-39
2022/02/27 08:17:05;;;;;;;2.40;0.20;;;;;;;19.51;38.88;101490.97;4998934;28;20038;-39
2022/02/27 08:19:31;;;;;;;1.60;0.35;;;;;;;19.55;39.04;101500.19;4979447;28;20030;-40
2022/02/27 08:21:56;;;;;;;4.93;0.68;;;;;;;19.61;38.90;101501.31;4983939;28;20042;-40
2022/02/27 08:24:22;;;;;;;3.28;0.55;;;;;;;19.64;38.78;101494.84;4985516;28;20034;-39
2022/02/27 08:26:47;;;;;;;0.90;0.20;;;;;;;19.67;38.64;101497.13;4983917;28;20046;-39
2022/02/27 08:29:13;;;;;;;2.25;0.20;;;;;;;19.71;38.68;101519.56;4985490;28;20034;-39
2022/02/27 08:31:42;;;;;;;0.60;0.20;;;;;;;19.76;38.65;101517.22;4980114;28;20061;-39
2022/02/27 08:34:07;;;;;;;1.80;0.25;;;;;;;19.82;38.46;101513.88;4985040;28;20026;-39
2022/02/27 08:36:33;;;;;;;3.40;0.20;;;;;;;19.88;38.61;101516.59;4984104;28;20038;-39
2022/02/27 08:38:59;;;;;;;1.25;0.22;;;;;;;19.94;38.44;101482.47;4987567;28;20090;-40
2022/02/27 08:41:26;;;;;;;1.35;0.20;;;;;;;19.98;38.44;101468.72;4988261;28;20057;-40
2022/02/27 08:43:52;;;;;;;2.30;0.20;;;;;;;20.03;38.39;101495.44;4987699;28;20434;-39
2022/02/27 08:46:18;;;;;;;1.88;0.40;;;;;;;20.07;38.20;101478.22;4986499;28;20038;-41
2022/02/27 08:48:44;;;;;;;2.42;0.20;;;;;;;20.11;38.33;101478.66;4986921;28;20060;-40
2022/02/27 08:51:09;;;;;;;0.82;0.20;;;;;;;20.14;38.33;101518.81;4985102;28;20120;-40
2022/02/27 08:53:35;;;;;;;14.15;0.30;;;;;;;20.18;38.33;101501.56;4987043;28;20053;-42
2022/02/27 08:56:00;;;;;;;5.13;0.25;;;;;;;20.19;38.08;101483.88;4990859;28;20026;-40
2022/02/27 08:58:27;;;;;;;1.80;0.20;;;;;;;20.20;38.15;101490.81;4987836;28;20121;-39
2022/02/27 09:00:53;;;;;;;3.33;0.40;;;;;;;20.24;37.82;101513.25;4988843;28;20042;-37
2022/02/27 09:03:24;;;;;;;4.78;0.30;;;;;;;20.28;38.09;101503.94;4988351;28;20038;-40
2022/02/27 09:05:53;;;;;;;7.43;0.32;;;;;;;20.35;38.43;101502.19;4988054;28;20110;-39
2022/02/27 09:08:19;;;;;;;2.17;0.30;;;;;;;20.38;38.54;101501.03;4987489;28;20026;-41
2022/02/27 09:10:45;;;;;;;1.38;0.30;;;;;;;20.36;38.67;101521.53;4989143;28;20104;-39
2022/02/27 09:13:11;;;;;;;4.70;0.30;;;;;;;20.34;38.47;101510.31;4987966;28;20046;-42
2022/02/27 09:15:37;;;;;;;2.15;0.38;;;;;;;20.32;38.37;101504.41;4989869;28;20038;-39
2022/02/27 09:18:02;;;;;;;3.80;0.43;;;;;;;20.29;38.25;101495.00;4989718;28;20027;-37
2022/02/27 09:20:28;;;;;;;1.67;0.60;;;;;;;20.29;38.13;101491.53;4986185;28;20112;-39
2022/02/27 09:22:53;;;;;;;2.30;0.20;;;;;;;20.28;37.95;101522.47;4995631;28;20035;-39
2022/02/27 09:25:19;;;;;;;3.25;0.32;;;;;;;20.28;37.67;101503.94;4988832;28;20026;-39
2022/02/27 09:27:45;;;;;;;4.95;0.20;;;;;;;20.28;37.76;101505.78;4984682;28;20037;-40
2022/02/27 09:30:12;;;;;;;1.38;0.30;;;;;;;20.28;38.11;101490.72;4987085;28;21131;-40
2022/02/27 09:32:38;;;;;;;1.35;0.35;;;;;;;20.28;38.18;101500.47;4986819;28;20379;-39
2022/02/27 09:35:06;;;;;;;6.00;0.40;;;;;;;20.27;38.85;101504.13;4987517;28;20042;-40
2022/02/27 09:37:34;;;;;;;3.75;0.30;;;;;;;20.25;39.54;101508.78;4985654;28;20034;-39
2022/02/27 09:40:01;;;;;;;6.35;0.38;;;;;;;20.24;40.67;101515.91;4983906;28;20030;-40
2022/02/27 09:42:31;;;;;;;7.05;0.30;;;;;;;20.25;41.17;101499.03;4986083;28;20034;-41
2022/02/27 09:44:58;;;;;;;2.97;0.30;;;;;;;20.25;41.50;101506.13;4988122;28;20037;-40
2022/02/27 09:47:23;;;;;;;8.75;0.80;;;;;;;20.25;41.63;101508.78;4982556;28;20037;-39
2022/02/27 09:49:51;;;;;;;2.20;0.88;;;;;;;20.25;42.03;101500.84;4984084;28;20026;-41
2022/02/27 09:52:18;;;;;;;7.32;0.98;;;;;;;20.24;42.18;101489.44;4987061;28;20088;-41
2022/02/27 09:54:45;;;;;;;6.05;0.50;;;;;;;20.23;41.74;101494.91;4986592;28;20359;-40
2022/02/27 09:57:19;;;;;;;5.47;0.60;;;;;;;20.19;41.11;101500.56;4985973;28;20512;-40
2022/02/27 09:59:45;;;;;;;13.13;0.88;;;;;;;20.18;40.66;101498.94;4983007;28;20482;-41
2022/02/27 10:02:12;;;;;;;1.67;0.77;;;;;;;20.17;40.33;101507.88;4982675;28;20129;-41
2022/02/27 10:04:40;;;;;;;11.90;0.75;;;;;;;20.16;40.02;101506.22;4981604;28;20033;-41
2022/02/27 10:07:19;;;;;;;14.30;1.00;;;;;;;20.14;40.05;101520.63;4982590;28;20073;-41
2022/02/27 10:09:47;;;;;;;6.00;0.93;;;;;;;20.11;39.65;101502.47;4986758;28;20046;-41
2022/02/27 10:12:12;;;;;;;8.02;0.63;;;;;;;20.10;39.49;101498.19;4984024;28;20042;-41
2022/02/27 10:14:38;;;;;;;7.70;0.65;;;;;;;20.08;39.62;101522.19;4986318;28;20035;-41
2022/02/27 10:17:05;;;;;;;6.28;0.63;;;;;;;20.06;39.68;101500.38;5002166;28;20125;-41
2022/02/27 10:19:36;;;;;;;2.00;0.68;;;;;;;20.04;39.41;101506.84;4985088;28;20038;-41
2022/02/27 10:22:03;;;;;;;5.30;0.60;;;;;;;20.02;39.46;101507.03;4986472;28;20166;-40
2022/02/27 10:24:28;;;;;;;5.55;0.47;;;;;;;19.99;39.34;101494.16;4984864;28;20254;-40
2022/02/27 10:26:54;;;;;;;8.75;0.50;;;;;;;19.99;39.44;101499.47;4983334;28;20109;-42
2022/02/27 10:29:25;;;;;;;5.05;0.40;;;;;;;19.98;39.50;101491.69;4984822;28;20449;-40
2022/02/27 10:31:57;;;;;;;3.55;0.50;;;;;;;19.97;39.60;101501.47;4985441;28;20758;-41
2022/02/27 10:34:26;;;;;;;6.75;0.60;;;;;;;19.98;39.64;101502.28;4985472;28;20394;-42
2022/02/27 10:37:03;;;;;;;4.47;0.70;;;;;;;19.96;39.35;101499.81;4984361;28;20189;-42
2022/02/27 10:39:51;;;;;;;5.07;0.50;;;;;;;19.95;38.90;101494.72;4981215;28;20041;-40
2022/02/27 10:42:27;;;;;;;3.00;0.65;;;;;;;19.95;38.91;101500.81;4981106;28;20034;-40
2022/02/27 10:44:56;;;;;;;5.57;0.65;;;;;;;19.95;38.67;101500.81;4985415;28;20043;-40
2022/02/27 10:47:32;;;;;;;3.95;0.57;;;;;;;19.94;38.70;101501.81;4986465;28;20069;-41
2022/02/27 10:49:58;;;;;;;;;;;;;;;19.86;38.46;101504.53;4985545;28;20038;-41
2022/02/27 10:52:32;;;;;;;3.42;0.50;;;;;;;19.88;38.60;101497.25;4985530;28;19926;-39
2022/02/27 10:55:00;;;;;;;2.75;0.40;;;;;;;19.95;38.51;101507.94;4981872;28;20022;-52
2022/02/27 10:57:50;;;;;;;7.78;0.40;;;;;;;19.97;38.08;101498.00;4983449;28;20031;-39
2022/02/27 11:00:21;;;;;;;1.98;0.40;;;;;;;19.96;38.22;101494.53;4980999;28;20113;-41
2022/02/27 11:03:08;;;;;;;3.47;0.40;;;;;;;19.93;38.32;101479.03;4983427;28;20244;-39
2022/02/27 11:05:36;;;;;;;1.50;0.40;;;;;;;19.92;38.68;101469.44;4982015;28;20516;-40
2022/02/27 11:08:05;;;;;;;4.45;0.82;;;;;;;19.91;38.68;101481.03;4981746;28;20514;-40
2022/02/27 11:10:33;;;;;;;2.67;0.60;;;;;;;19.89;38.62;101477.72;4982605;28;20057;-40
2022/02/27 11:13:01;;;;;;;1.98;0.70;;;;;;;19.88;38.77;101470.81;4985022;28;20101;-40
2022/02/27 11:15:27;;;;;;;4.00;0.82;;;;;;;19.86;38.62;101478.91;4985563;28;20029;-42
2022/02/27 11:17:54;;;;;;;5.70;0.82;;;;;;;19.84;38.69;101480.94;4984899;28;20033;-46
2022/02/27 11:20:21;;;;;;;3.67;0.70;;;;;;;19.84;39.13;101477.47;4983266;28;20041;-46